Flight ASXEV4A

  • Submitted By: Rafal Piotrowski
  • Departure Airport: Gdansk im. Lecha Walesy (EPGD)
  • Arrival Airport: Athens (LGAV)
  • Aircraft: A320-214 (SP-GSA)
  • Flight Time: 2.40
  • Date Submitted: 11/10/2015
  • Route: IRLUN N133 POLON Z169 BABKO UM66 DEMOP DCT PARAK UM173 TISAK UP192 OKLOP UL617 SKP UB1 ABLON
  • Status: Accepted
Flight Details
Gross Revenue:
(145 load / € 236.00 per unit
€ 34,220.00
Fuel Cost:
(6182 fuel used @ 1.5 / unit)
€ 9,273.00

Additional Log Information:

View Log

[2015/11/11 00:17:00]
Flight IATA:ASXEV4A
Pilot Number:ASX0102
Company ICAO:ASX
Aircraft Type:A320-214
PAX:145
Aircraft Registration:SP-GSA
Departing Airport: EPGD
Destination Airport: LGAV
Alternate Airport:LGSK
Online: VATSIM
Route:IRLUN N133 POLON Z169 BABKO UM66 DEMOP DCT PARAK UM173 TISAK UP192 OKLOP UL617 SKP UB1 ABLON
Flight Level:35000
00:17 Zero fuel Weight: 50446 Kg, Fuel Weight: 8899 Kg
00:17 VATSIM:EPGD 110000Z 28015KT 8000 BKN009 13/12 Q1008
00:17 VATSIM:LGAV 102350Z 28004KT 9999 FEW030 14/08 Q1020 NOSIG
00:31 Parking Brakes off
00:31 Com1 Freq=122.80
00:42 VR= 154 Knots
00:42 V2= 159 Knots
00:42 Take-off
00:42 Take off Weight: 65623 Kg
00:42 Wind: 279? @ 017 Knots Heading: 292?
00:42 POS N54? 22? 36?? E018? 28? 07??
00:42 N11 93 N12 93
00:42 Flaps:2 at 160 Knots
00:42 Gear Up: 164 Knots
00:42 Flaps:0 at 194 Knots
00:57 Wind:304?@072 Knots Heading: 168? Ground Speed: 518 Knots Altitude 31771 ft
00:59 TOC
00:59 Fuel Weight: 7258 Kg
01:12 Wind:308?@054 Knots Heading: 188? Ground Speed: 481 Knots Altitude 35095 ft
01:27 Wind:307?@054 Knots Heading: 169? Ground Speed: 494 Knots Altitude 35154 ft
01:42 Wind:310?@058 Knots Heading: 184? Ground Speed: 488 Knots Altitude 35187 ft
01:57 Wind:314?@059 Knots Heading: 149? Ground Speed: 509 Knots Altitude 35252 ft
02:12 Wind:319?@060 Knots Heading: 166? Ground Speed: 506 Knots Altitude 35255 ft
02:27 Wind:331?@057 Knots Heading: 151? Ground Speed: 509 Knots Altitude 35183 ft
02:37 TOD
02:37 Fuel Weight: 3448 Kg
02:42 Wind:004?@043 Knots Heading: 174? Ground Speed: 463 Knots Altitude 25639 ft
02:56 Flaps:1 at 198 Knots
02:57 Wind:349?@007 Knots Heading: 094? Ground Speed: 187 Knots Altitude 1909 ft
02:58 Flaps:3 at 174 Knots
03:00 Flaps:4 at 160 Knots
03:00 Gear Down: 160 Knots
03:01 Flaps:5 at 151 Knots
03:03 TouchDown:Rate -337 ft/min Speed: 124 Knots
03:03 VATSIM:LGAV 110250Z VRB02KT 9999 FEW030 14/07 Q1020 NOSIG
03:03 Land
03:03 Wind:359?@002 Knots
03:03 Heading: 036?
03:03 Flight Duration: 02:21
03:03 Landing Weight: 59762 Kg
03:03 POS N37? 56? 00?? E023? 55? 48??
03:11 Parking brakes on
03:11 Block to Block Duration: 02:40
03:11 Final Fuel: 2717 Kg
03:11 Spent Fuel: 6182 Kg
03:11 Flight Length: 1077 NM
03:11 TOD Land Length: 140 NM

Route Map